createdAt,value
2019-02-02T00:01:08.936Z,94.59
2019-02-02T00:03:40.299Z,95.05
2019-02-02T00:06:08.924Z,95.10
2019-02-02T00:08:37.523Z,95.14
2019-02-02T00:11:06.180Z,95.23
2019-02-02T00:13:34.791Z,95.01
2019-02-02T00:16:03.721Z,95.17
2019-02-02T00:18:33.854Z,95.34
2019-02-02T00:21:04.053Z,95.51
2019-02-02T00:23:35.619Z,95.45
2019-02-02T00:26:04.562Z,95.20
2019-02-02T00:28:33.110Z,95.24
2019-02-02T00:31:03.236Z,95.28
2019-02-02T00:33:31.864Z,95.42
2019-02-02T00:36:00.619Z,95.75
2019-02-02T00:38:29.170Z,95.83
2019-02-02T00:40:57.766Z,95.43
2019-02-02T00:43:26.322Z,95.65
2019-02-02T00:45:54.921Z,95.80
2019-02-02T00:48:23.520Z,96.08
2019-02-02T00:50:52.091Z,96.27
2019-02-02T00:53:20.688Z,96.31
2019-02-02T00:55:49.242Z,96.33
2019-02-02T00:58:17.840Z,96.13
2019-02-02T01:00:46.431Z,96.17
2019-02-02T01:03:15.065Z,96.32
2019-02-02T01:05:43.965Z,96.31
2019-02-02T01:08:12.570Z,96.59
2019-02-02T01:10:44.220Z,96.44
2019-02-02T01:13:12.803Z,95.97
2019-02-02T01:15:41.499Z,95.88
2019-02-02T01:18:10.088Z,96.09
2019-02-02T01:20:39.148Z,96.24
2019-02-02T01:23:07.755Z,96.13
2019-02-02T01:25:36.310Z,95.91
2019-02-02T01:28:05.775Z,95.27
2019-02-02T01:30:34.514Z,94.57
2019-02-02T01:33:03.075Z,94.19
2019-02-02T01:35:33.216Z,94.49
2019-02-02T01:38:01.906Z,95.17
2019-02-02T01:40:30.462Z,95.94
2019-02-02T01:42:59.066Z,96.42
2019-02-02T01:45:28.900Z,96.63
2019-02-02T01:47:57.591Z,96.81
2019-02-02T01:50:27.630Z,96.96
2019-02-02T01:52:56.256Z,97.03
2019-02-02T01:55:24.995Z,96.94
2019-02-02T01:57:53.697Z,97.00
2019-02-02T02:00:24.972Z,97.12
2019-02-02T02:02:53.598Z,97.16
2019-02-02T02:05:22.291Z,97.03
2019-02-02T02:07:51.085Z,96.76
2019-02-02T02:10:20.742Z,96.79
2019-02-02T02:12:49.680Z,96.90
2019-02-02T02:15:19.476Z,96.68
2019-02-02T02:17:49.168Z,96.65
2019-02-02T02:20:19.501Z,96.57
2019-02-02T02:22:49.445Z,96.60
2019-02-02T02:25:19.340Z,96.89
2019-02-02T02:27:48.466Z,97.09
2019-02-02T02:30:18.857Z,97.35
2019-02-02T02:32:47.655Z,97.38
2019-02-02T02:35:16.394Z,97.31
2019-02-02T02:37:45.088Z,97.20
2019-02-02T02:40:17.055Z,97.07
2019-02-02T02:42:45.991Z,96.82
2019-02-02T02:45:15.031Z,96.71
2019-02-02T02:47:43.770Z,96.81
2019-02-02T02:50:14.673Z,96.96
2019-02-02T02:52:43.332Z,96.86
2019-02-02T02:55:13.826Z,96.63
2019-02-02T02:57:42.496Z,96.68
2019-02-02T03:00:19.752Z,96.91
2019-02-02T03:02:48.490Z,96.83
2019-02-02T03:05:18.225Z,96.85
2019-02-02T03:07:47.738Z,96.93
2019-02-02T03:10:18.563Z,96.92
2019-02-02T03:12:47.192Z,96.99
2019-02-02T03:15:17.384Z,96.92
2019-02-02T03:17:46.539Z,96.88
2019-02-02T03:20:18.383Z,96.82
2019-02-02T03:22:47.053Z,96.87
2019-02-02T03:25:24.333Z,96.71
2019-02-02T03:27:53.007Z,96.62
2019-02-02T03:30:22.726Z,96.62
2019-02-02T03:32:51.668Z,96.94
2019-02-02T03:35:22.766Z,97.05
2019-02-02T03:37:51.763Z,97.23
2019-02-02T03:40:24.716Z,97.09
2019-02-02T03:42:53.552Z,96.99
2019-02-02T03:45:24.563Z,96.76
2019-02-02T03:47:54.188Z,96.69
2019-02-02T03:50:25.786Z,96.66
2019-02-02T03:52:54.379Z,96.52
2019-02-02T03:55:23.057Z,96.37
2019-02-02T03:57:51.692Z,96.41
2019-02-02T04:00:22.312Z,96.73
2019-02-02T04:02:51.077Z,96.81
2019-02-02T04:05:22.014Z,97.10
2019-02-02T04:07:50.638Z,97.29
2019-02-02T04:10:19.260Z,97.36
2019-02-02T04:12:48.003Z,97.45
2019-02-02T04:15:18.095Z,97.44
2019-02-02T04:17:47.171Z,97.36
2019-02-02T04:20:17.807Z,97.30
2019-02-02T04:22:47.484Z,97.13
2019-02-02T04:25:16.589Z,96.85
2019-02-02T04:27:45.220Z,96.73
2019-02-02T04:30:16.901Z,96.36
2019-02-02T04:32:45.641Z,96.48
2019-02-02T04:35:14.309Z,96.20
2019-02-02T04:37:42.943Z,96.26
2019-02-02T04:40:14.153Z,96.39
2019-02-02T04:42:42.693Z,96.47
2019-02-02T04:45:16.332Z,96.66
2019-02-02T04:47:44.968Z,96.63
2019-02-02T04:50:21.444Z,96.45
2019-02-02T04:52:50.145Z,96.32
2019-02-02T04:55:20.039Z,96.10
2019-02-02T04:57:48.696Z,95.79
2019-02-02T05:00:20.340Z,95.87
2019-02-02T05:02:48.944Z,96.09
2019-02-02T05:05:18.586Z,96.73
2019-02-02T05:07:47.207Z,97.01
2019-02-02T05:10:20.744Z,96.85
2019-02-02T05:12:49.344Z,96.85
2019-02-02T05:15:18.016Z,96.80
2019-02-02T05:17:46.630Z,96.78
2019-02-02T05:20:19.585Z,96.86
2019-02-02T05:22:48.606Z,96.73
2019-02-02T05:25:17.723Z,96.86
2019-02-02T05:27:46.465Z,96.79
2019-02-02T05:30:26.701Z,96.58
2019-02-02T05:32:55.375Z,96.35
2019-02-02T05:35:24.000Z,96.34
2019-02-02T05:37:55.398Z,96.37
2019-02-02T05:40:24.663Z,96.58
2019-02-02T05:42:53.329Z,96.43
2019-02-02T05:45:23.797Z,96.46
2019-02-02T05:47:52.384Z,96.58
2019-02-02T05:50:23.190Z,96.80
2019-02-02T05:52:52.960Z,96.94
2019-02-02T05:55:23.681Z,97.03
2019-02-02T05:57:52.427Z,96.87
2019-02-02T06:03:18.055Z,97.11
2019-02-02T06:05:46.799Z,96.87
2019-02-02T06:08:15.362Z,96.47
2019-02-02T06:10:43.985Z,96.02
2019-02-02T06:13:12.659Z,96.27
2019-02-02T06:15:41.364Z,96.08
2019-02-02T06:18:10.093Z,96.27
2019-02-02T06:20:38.657Z,96.60
2019-02-02T06:23:07.263Z,96.92
2019-02-02T06:25:35.836Z,96.91
2019-02-02T06:28:04.725Z,97.15
2019-02-02T06:30:33.460Z,97.36
2019-02-02T06:33:02.015Z,97.55
2019-02-02T06:35:32.327Z,97.77
2019-02-02T06:38:00.947Z,97.97
2019-02-02T06:40:29.607Z,98.02
2019-02-02T06:42:58.190Z,98.03
2019-02-02T06:45:29.130Z,97.79
2019-02-02T06:47:57.754Z,97.62
2019-02-02T06:50:26.494Z,96.75
2019-02-02T06:52:55.053Z,96.59
2019-02-02T06:55:23.658Z,96.69
2019-02-02T06:57:52.223Z,97.14
2019-02-02T07:00:22.857Z,97.31
2019-02-02T07:02:52.000Z,97.50
2019-02-02T07:05:21.035Z,97.42
2019-02-02T07:07:49.637Z,97.20
2019-02-02T07:10:29.177Z,96.83
2019-02-02T07:12:57.738Z,96.40
2019-02-02T07:15:28.833Z,96.55
2019-02-02T07:17:57.586Z,96.87
2019-02-02T07:20:28.999Z,97.18
2019-02-02T07:22:57.718Z,97.50
2019-02-02T07:25:26.364Z,97.56
2019-02-02T07:27:55.031Z,97.45
2019-02-02T07:30:29.686Z,97.51
2019-02-02T07:32:55.268Z,97.22
2019-02-02T07:35:23.922Z,96.97
2019-02-02T07:37:52.482Z,96.85
2019-02-02T07:40:21.957Z,97.03
2019-02-02T07:42:51.026Z,96.92
2019-02-02T07:45:31.356Z,96.87
2019-02-02T07:48:02.237Z,96.48
2019-02-02T07:50:30.922Z,95.96
2019-02-02T07:53:01.507Z,95.70
2019-02-02T07:55:29.794Z,96.28
2019-02-02T07:57:58.403Z,96.78
2019-02-02T08:00:40.771Z,97.26
2019-02-02T08:03:04.471Z,97.57
2019-02-02T08:05:33.074Z,97.80
2019-02-02T08:08:03.238Z,98.08
2019-02-02T08:10:34.697Z,98.21
2019-02-02T08:13:03.318Z,98.30
2019-02-02T08:15:33.903Z,98.27
2019-02-02T08:18:04.811Z,98.18
2019-02-02T08:20:33.694Z,98.14
2019-02-02T08:23:04.446Z,98.21
2019-02-02T08:25:34.272Z,98.06
2019-02-02T08:28:03.148Z,97.76
2019-02-02T08:30:35.612Z,97.33
2019-02-02T08:33:03.732Z,97.24
2019-02-02T08:35:33.859Z,97.37
2019-02-02T08:38:04.990Z,97.63
2019-02-02T08:40:33.689Z,97.89
2019-02-02T08:43:02.239Z,98.09
2019-02-02T08:45:30.835Z,98.08
2019-02-02T08:48:01.278Z,97.95
2019-02-02T08:50:35.324Z,98.08
2019-02-02T08:53:04.245Z,98.36
2019-02-02T08:55:32.945Z,98.15
2019-02-02T08:58:01.530Z,97.81
2019-02-02T09:00:33.107Z,97.41
2019-02-02T09:03:03.230Z,97.05
2019-02-02T09:05:33.288Z,97.10
2019-02-02T09:08:05.349Z,97.12
2019-02-02T09:10:34.213Z,97.05
2019-02-02T09:13:02.821Z,97.25
2019-02-02T09:15:31.383Z,97.27
2019-02-02T09:18:06.119Z,97.20
2019-02-02T09:20:35.106Z,97.06
2019-02-02T09:23:06.611Z,96.27
2019-02-02T09:25:34.047Z,95.68
2019-02-02T09:28:05.704Z,96.15
2019-02-02T09:30:36.105Z,95.99
2019-02-02T09:33:05.445Z,95.72
2019-02-02T09:35:34.006Z,95.43
2019-02-02T09:38:05.902Z,95.31
2019-02-02T09:40:34.801Z,95.40
2019-02-02T09:43:03.430Z,95.06
2019-02-02T09:45:35.085Z,95.71
2019-02-02T09:48:03.691Z,95.89
2019-02-02T09:50:32.235Z,95.96
2019-02-02T09:53:02.579Z,96.48
2019-02-02T09:55:33.997Z,96.85
2019-02-02T09:58:08.797Z,97.01
2019-02-02T10:00:38.793Z,97.06
2019-02-02T10:03:07.907Z,96.76
2019-02-02T10:05:36.699Z,96.69
2019-02-02T10:08:05.341Z,96.78
2019-02-02T10:10:35.200Z,96.74
2019-02-02T10:13:04.085Z,95.58
2019-02-02T10:15:35.563Z,95.58
2019-02-02T10:18:04.708Z,95.47
2019-02-02T10:20:33.253Z,94.74
2019-02-02T10:23:04.869Z,95.47
2019-02-02T10:25:33.426Z,95.52
2019-02-02T10:28:05.008Z,95.49
2019-02-02T10:30:38.953Z,95.44
2019-02-02T10:33:08.051Z,94.80
2019-02-02T10:35:36.662Z,94.30
2019-02-02T10:38:05.907Z,93.90
2019-02-02T10:40:34.604Z,93.99
2019-02-02T10:43:03.776Z,94.22
2019-02-02T10:45:33.955Z,94.33
2019-02-02T10:48:03.569Z,94.51
2019-02-02T10:50:33.090Z,94.71
2019-02-02T10:53:02.677Z,95.40
2019-02-02T10:55:31.674Z,95.98
2019-02-02T10:58:03.478Z,96.21
2019-02-02T11:00:34.634Z,96.59
2019-02-02T11:03:03.275Z,96.71
2019-02-02T11:05:34.709Z,96.68
2019-02-02T11:08:04.610Z,95.99
2019-02-02T11:10:34.558Z,95.89
2019-02-02T11:13:03.243Z,95.94
2019-02-02T11:15:34.873Z,95.91
2019-02-02T11:18:03.549Z,95.59
2019-02-02T11:20:34.223Z,95.87
2019-02-02T11:23:03.193Z,96.10
2019-02-02T11:25:34.544Z,96.37
2019-02-02T11:28:03.353Z,96.13
2019-02-02T11:30:32.278Z,95.06
2019-02-02T11:33:00.975Z,95.06
2019-02-02T11:35:29.654Z,94.04
2019-02-02T11:37:58.397Z,94.03
2019-02-02T11:40:37.911Z,93.97
2019-02-02T11:43:12.873Z,93.45
2019-02-02T11:45:41.422Z,93.41
2019-02-02T11:48:10.000Z,93.62
2019-02-02T11:50:38.598Z,93.75
2019-02-02T11:53:07.404Z,93.77
2019-02-02T11:55:36.071Z,94.29
2019-02-02T11:58:04.832Z,95.20
2019-02-02T12:00:36.249Z,95.05
2019-02-02T12:03:05.149Z,95.12
2019-02-02T12:05:34.107Z,95.23
2019-02-02T12:08:05.476Z,95.57
2019-02-02T12:10:35.283Z,95.96
2019-02-02T12:13:04.463Z,95.47
2019-02-02T12:15:33.166Z,95.34
2019-02-02T12:18:03.286Z,95.01
2019-02-02T12:20:34.828Z,95.73
2019-02-02T12:23:03.513Z,96.28
2019-02-02T12:25:32.076Z,96.64
2019-02-02T12:28:02.424Z,96.95
2019-02-02T12:30:35.239Z,97.05
2019-02-02T12:33:04.516Z,97.03
2019-02-02T12:35:33.150Z,96.62
2019-02-02T12:38:03.284Z,96.59
2019-02-02T12:40:34.943Z,96.71
2019-02-02T12:43:03.544Z,96.55
2019-02-02T12:45:49.106Z,96.37
2019-02-02T12:48:17.802Z,95.97
2019-02-02T12:50:46.363Z,96.16
2019-02-02T12:53:15.007Z,96.56
2019-02-02T12:55:43.946Z,97.18
2019-02-02T12:58:12.713Z,97.54
2019-02-02T13:00:44.301Z,97.57
2019-02-02T13:03:11.837Z,97.17
2019-02-02T13:05:40.397Z,96.47
2019-02-02T13:08:09.214Z,95.95
2019-02-02T13:10:38.200Z,95.54
2019-02-02T13:13:07.715Z,95.33
2019-02-02T13:15:36.319Z,95.43
2019-02-02T13:18:05.020Z,95.91
2019-02-02T13:20:33.775Z,96.33
2019-02-02T13:23:03.985Z,96.32
2019-02-02T13:25:35.360Z,95.87
2019-02-02T13:28:04.035Z,95.67
2019-02-02T13:30:36.774Z,95.33
2019-02-02T13:33:06.103Z,95.80
2019-02-02T13:35:36.711Z,96.05
2019-02-02T13:38:05.824Z,96.03
2019-02-02T13:40:34.504Z,95.82
2019-02-02T13:43:03.482Z,96.13
2019-02-02T13:45:35.232Z,96.24
2019-02-02T13:48:04.120Z,96.10
2019-02-02T13:50:35.467Z,96.20
2019-02-02T13:53:04.953Z,96.20
2019-02-02T13:55:33.566Z,96.03
2019-02-02T13:58:02.142Z,95.75
2019-02-02T14:00:34.955Z,95.13
2019-02-02T14:03:04.011Z,94.99
2019-02-02T14:05:32.967Z,95.12
2019-02-02T14:08:02.011Z,94.96
2019-02-02T14:10:35.314Z,95.00
2019-02-02T14:13:03.970Z,95.13
2019-02-02T14:15:34.090Z,95.13
2019-02-02T14:18:05.993Z,94.93
2019-02-02T14:20:35.039Z,95.03
2019-02-02T14:23:03.770Z,94.93
2019-02-02T14:25:32.349Z,95.05
2019-02-02T14:28:00.906Z,95.33
2019-02-02T14:30:29.624Z,95.56
2019-02-02T14:32:58.212Z,95.84
2019-02-02T14:35:28.641Z,95.89
2019-02-02T14:37:57.378Z,96.44
2019-02-02T14:40:26.043Z,96.82
2019-02-02T14:42:54.680Z,97.00
2019-02-02T14:45:27.666Z,96.78
2019-02-02T14:47:56.193Z,96.19
2019-02-02T14:50:25.438Z,95.94
2019-02-02T14:52:57.012Z,96.06
2019-02-02T14:55:27.864Z,96.20
2019-02-02T14:57:56.491Z,95.97
2019-02-02T15:00:27.338Z,95.80
2019-02-02T15:02:56.378Z,96.20
2019-02-02T15:05:25.109Z,96.58
2019-02-02T15:07:53.696Z,96.56
2019-02-02T15:10:23.093Z,96.37
2019-02-02T15:12:51.836Z,96.58
2019-02-02T15:15:23.588Z,96.76
2019-02-02T15:17:52.256Z,96.81
2019-02-02T15:20:26.551Z,97.07
2019-02-02T15:22:55.151Z,96.92
2019-02-02T15:25:23.951Z,97.02
2019-02-02T15:27:52.692Z,97.20
2019-02-02T15:30:24.232Z,97.49
2019-02-02T15:32:53.024Z,97.83
2019-02-02T15:35:21.679Z,97.97
2019-02-02T15:37:50.417Z,98.08
2019-02-02T15:40:20.372Z,98.13
2019-02-02T15:42:49.075Z,98.22
2019-02-02T15:45:38.023Z,98.37
2019-02-02T15:48:06.763Z,98.46
2019-02-02T15:50:35.528Z,98.64
2019-02-02T15:53:04.440Z,98.78
2019-02-02T15:55:33.665Z,98.69
2019-02-02T15:58:03.826Z,98.64
2019-02-02T16:00:37.421Z,98.75
2019-02-02T16:03:06.378Z,98.77
2019-02-02T16:05:55.721Z,98.98
2019-02-02T16:08:24.444Z,99.24
2019-02-02T16:10:58.650Z,99.34
2019-02-02T16:13:27.751Z,99.32
2019-02-02T16:15:56.820Z,99.34
2019-02-02T16:18:25.404Z,99.33
2019-02-02T16:20:54.033Z,99.28
2019-02-02T16:23:22.634Z,99.27
2019-02-02T16:25:51.196Z,99.04
2019-02-02T16:28:19.920Z,99.03
2019-02-02T16:30:48.728Z,99.00
2019-02-02T16:33:17.295Z,99.09
2019-02-02T16:35:45.971Z,99.31
2019-02-02T16:38:14.620Z,99.38
2019-02-02T16:40:43.744Z,99.58
2019-02-02T16:43:12.488Z,99.75
2019-02-02T16:45:41.445Z,99.98
2019-02-02T16:48:10.058Z,100.00
2019-02-02T16:50:38.775Z,100.00
2019-02-02T16:53:07.375Z,100.00
2019-02-02T16:55:36.012Z,100.00
2019-02-02T16:58:05.223Z,100.00
2019-02-02T17:00:34.547Z,100.00
2019-02-02T17:03:03.224Z,100.00
2019-02-02T17:05:34.740Z,100.00
2019-02-02T17:08:03.431Z,100.00
2019-02-02T17:10:34.438Z,100.00
2019-02-02T17:13:03.109Z,100.00
2019-02-02T17:15:33.267Z,100.00
2019-02-02T17:18:02.163Z,99.93
2019-02-02T17:20:55.857Z,99.92
2019-02-02T17:23:24.465Z,99.99
2019-02-02T17:25:53.014Z,99.98
2019-02-02T17:28:21.748Z,100.00
2019-02-02T17:30:50.473Z,100.00
2019-02-02T17:33:19.167Z,100.00
2019-02-02T17:35:47.723Z,100.00
2019-02-02T17:38:16.324Z,100.00
2019-02-02T17:40:45.347Z,100.00
2019-02-02T17:43:14.239Z,100.00
2019-02-02T17:45:43.199Z,100.00
2019-02-02T17:48:13.254Z,100.00
2019-02-02T17:50:42.105Z,100.00
2019-02-02T17:53:10.782Z,100.00
2019-02-02T17:55:39.428Z,100.00
2019-02-02T17:58:08.031Z,100.00
2019-02-02T18:00:41.463Z,100.00
2019-02-02T18:03:10.018Z,100.00
2019-02-02T18:05:38.624Z,100.00
2019-02-02T18:08:07.342Z,100.00
2019-02-02T18:10:35.937Z,100.00
2019-02-02T18:13:05.042Z,100.00
2019-02-02T18:15:33.761Z,100.00
2019-02-02T18:18:04.138Z,100.00
2019-02-02T18:20:35.702Z,100.00
2019-02-02T18:23:04.951Z,100.00
2019-02-02T18:25:33.561Z,99.97
2019-02-02T18:28:02.286Z,99.80
2019-02-02T18:30:30.916Z,99.86
2019-02-02T18:32:59.589Z,99.78
2019-02-02T18:35:28.173Z,99.75
2019-02-02T18:37:56.769Z,99.68
2019-02-02T18:40:25.956Z,99.50
2019-02-02T18:42:54.744Z,99.36
2019-02-02T18:45:25.590Z,99.31
2019-02-02T18:47:54.321Z,99.28
2019-02-02T18:50:23.066Z,99.41
2019-02-02T18:52:53.702Z,99.41
2019-02-02T18:55:28.745Z,99.38
2019-02-02T18:57:57.456Z,99.31
2019-02-02T19:00:26.136Z,99.26
2019-02-02T19:02:55.246Z,99.23
2019-02-02T19:05:23.938Z,99.24
2019-02-02T19:07:53.021Z,99.29
2019-02-02T19:10:24.785Z,99.24
2019-02-02T19:12:53.370Z,99.28
2019-02-02T19:15:22.101Z,99.33
2019-02-02T19:17:51.181Z,99.44
2019-02-02T19:20:23.578Z,99.33
2019-02-02T19:22:57.228Z,99.20
2019-02-02T19:25:25.574Z,99.16
2019-02-02T19:27:54.167Z,99.28
2019-02-02T19:30:28.671Z,99.22
2019-02-02T19:32:57.425Z,99.05
2019-02-02T19:35:26.424Z,98.88
2019-02-02T19:37:55.102Z,98.72
2019-02-02T19:40:23.903Z,98.72
2019-02-02T19:42:52.592Z,98.76
2019-02-02T19:45:23.808Z,98.92
2019-02-02T19:47:52.883Z,98.86
2019-02-02T19:50:24.604Z,98.83
2019-02-02T19:52:53.721Z,98.57
2019-02-02T19:55:23.053Z,98.34
2019-02-02T19:57:52.129Z,98.45
2019-02-02T20:00:26.132Z,98.49
2019-02-02T20:02:55.558Z,98.43
2019-02-02T20:05:28.825Z,98.42
2019-02-02T20:07:54.687Z,98.60
2019-02-02T20:10:23.899Z,98.73
2019-02-02T20:12:56.193Z,98.69
2019-02-02T20:15:28.513Z,98.57
2019-02-02T20:18:08.882Z,98.61
2019-02-02T20:20:28.967Z,98.65
2019-02-02T20:22:57.908Z,98.62
2019-02-02T20:25:27.579Z,98.80
2019-02-02T20:27:56.310Z,98.89
2019-02-02T20:30:27.231Z,98.86
2019-02-02T20:32:56.534Z,99.02
2019-02-02T20:35:25.111Z,99.04
2019-02-02T20:37:53.969Z,99.14
2019-02-02T20:40:24.332Z,99.21
2019-02-02T20:42:53.393Z,98.93
2019-02-02T20:45:41.610Z,98.80
2019-02-02T20:48:10.630Z,98.71
2019-02-02T20:50:39.647Z,98.75
2019-02-02T20:53:08.819Z,98.87
2019-02-02T20:55:40.556Z,99.01
2019-02-02T20:58:09.364Z,98.98
2019-02-02T21:00:38.844Z,98.86
2019-02-02T21:03:07.593Z,98.83
2019-02-02T21:05:36.310Z,98.81
2019-02-02T21:08:05.582Z,98.72
2019-02-02T21:10:34.363Z,98.65
2019-02-02T21:13:24.203Z,98.55
2019-02-02T21:15:52.880Z,98.54
2019-02-02T21:18:21.457Z,98.47
2019-02-02T21:20:51.006Z,98.50
2019-02-02T21:23:19.739Z,98.36
2019-02-02T21:25:48.405Z,98.39
2019-02-02T21:28:16.990Z,98.67
2019-02-02T21:30:46.022Z,98.85
2019-02-02T21:33:14.877Z,98.92
2019-02-02T21:35:43.505Z,99.05
2019-02-02T21:38:12.143Z,99.09
2019-02-02T21:40:40.854Z,99.14
2019-02-02T21:43:09.730Z,99.25
2019-02-02T21:45:38.577Z,99.23
2019-02-02T21:48:07.388Z,99.28
2019-02-02T21:50:39.318Z,99.32
2019-02-02T21:53:08.522Z,99.35
2019-02-02T21:55:37.328Z,99.27
2019-02-02T21:58:06.952Z,99.39
2019-02-02T22:00:38.819Z,99.48
2019-02-02T22:03:10.039Z,99.62
2019-02-02T22:05:38.964Z,99.75
2019-02-02T22:08:08.026Z,99.83
2019-02-02T22:10:36.709Z,99.83
2019-02-02T22:13:06.531Z,99.88
2019-02-02T22:15:35.293Z,99.84
2019-02-02T22:18:04.019Z,99.96
2019-02-02T22:20:35.514Z,100.00
2019-02-02T22:23:04.222Z,100.00
2019-02-02T22:25:33.710Z,100.00
2019-02-02T22:28:02.358Z,100.00
2019-02-02T22:30:38.100Z,100.00
2019-02-02T22:33:06.906Z,100.00
2019-02-02T22:35:35.547Z,100.00
2019-02-02T22:38:04.392Z,100.00
2019-02-02T22:40:33.494Z,100.00
2019-02-02T22:43:02.435Z,100.00
2019-02-02T22:45:34.041Z,100.00
2019-02-02T22:48:06.467Z,100.00
2019-02-02T22:50:35.020Z,100.00
2019-02-02T22:53:04.102Z,100.00
2019-02-02T22:55:32.676Z,100.00
2019-02-02T22:58:01.285Z,100.00
2019-02-02T23:00:43.265Z,100.00
2019-02-02T23:03:24.415Z,100.00
2019-02-02T23:05:59.565Z,100.00
2019-02-02T23:08:40.207Z,100.00
2019-02-02T23:11:14.939Z,100.00
2019-02-02T23:13:58.498Z,100.00
2019-02-02T23:16:28.325Z,100.00
2019-02-02T23:18:57.070Z,100.00
2019-02-02T23:21:26.158Z,100.00
2019-02-02T23:23:55.101Z,100.00
2019-02-02T23:26:23.656Z,100.00
2019-02-02T23:28:52.283Z,100.00
2019-02-02T23:31:21.713Z,100.00
2019-02-02T23:33:50.282Z,100.00
2019-02-02T23:36:19.053Z,100.00
2019-02-02T23:38:47.602Z,100.00
2019-02-02T23:41:16.239Z,100.00
2019-02-02T23:43:44.824Z,100.00
2019-02-02T23:46:13.776Z,100.00
2019-02-02T23:48:42.377Z,100.00
2019-02-02T23:51:10.927Z,99.92
2019-02-02T23:53:39.681Z,99.83
2019-02-02T23:56:08.320Z,99.77
2019-02-02T23:58:36.922Z,99.68
